sensor_id;sensor_type;location;lat;lon;timestamp;P1;durP1;ratioP1;P2;durP2;ratioP2
22571;SDS011;11452;53.368;14.658;2022-07-29T00:03:53;2.07;;;1.97;;
22571;SDS011;11452;53.368;14.658;2022-07-29T00:08:58;5.13;;;2.30;;
22571;SDS011;11452;53.368;14.658;2022-07-29T00:14:04;2.70;;;2.03;;
22571;SDS011;11452;53.368;14.658;2022-07-29T00:19:10;3.77;;;2.17;;
22571;SDS011;11452;53.368;14.658;2022-07-29T00:24:16;3.83;;;2.00;;
22571;SDS011;11452;53.368;14.658;2022-07-29T00:29:22;2.60;;;1.83;;
22571;SDS011;11452;53.368;14.658;2022-07-29T00:34:29;3.63;;;2.20;;
22571;SDS011;11452;53.368;14.658;2022-07-29T00:39:53;2.33;;;2.13;;
22571;SDS011;11452;53.368;14.658;2022-07-29T00:44:58;2.80;;;1.97;;
22571;SDS011;11452;53.368;14.658;2022-07-29T00:50:04;2.23;;;2.03;;
22571;SDS011;11452;53.368;14.658;2022-07-29T00:55:11;3.93;;;2.30;;
22571;SDS011;11452;53.368;14.658;2022-07-29T01:00:21;4.10;;;2.53;;
22571;SDS011;11452;53.368;14.658;2022-07-29T01:05:28;4.10;;;2.97;;
22571;SDS011;11452;53.368;14.658;2022-07-29T01:10:36;4.20;;;3.20;;
22571;SDS011;11452;53.368;14.658;2022-07-29T01:15:46;5.00;;;3.90;;
22571;SDS011;11452;53.368;14.658;2022-07-29T01:36:55;4.87;;;4.20;;
22571;SDS011;11452;53.368;14.658;2022-07-29T01:42:20;4.97;;;3.90;;
22571;SDS011;11452;53.368;14.658;2022-07-29T01:47:33;3.73;;;3.40;;
22571;SDS011;11452;53.368;14.658;2022-07-29T01:57:51;3.30;;;2.77;;
22571;SDS011;11452;53.368;14.658;2022-07-29T02:02:58;3.63;;;3.17;;
22571;SDS011;11452;53.368;14.658;2022-07-29T02:08:09;3.20;;;2.80;;
22571;SDS011;11452;53.368;14.658;2022-07-29T02:13:16;4.63;;;2.60;;
22571;SDS011;11452;53.368;14.658;2022-07-29T02:18:25;5.27;;;2.63;;
22571;SDS011;11452;53.368;14.658;2022-07-29T02:23:34;5.23;;;2.50;;
22571;SDS011;11452;53.368;14.658;2022-07-29T02:28:43;3.83;;;2.93;;
22571;SDS011;11452;53.368;14.658;2022-07-29T02:33:51;3.53;;;2.30;;
22571;SDS011;11452;53.368;14.658;2022-07-29T02:38:58;4.00;;;2.20;;
22571;SDS011;11452;53.368;14.658;2022-07-29T02:44:12;4.93;;;2.23;;
22571;SDS011;11452;53.368;14.658;2022-07-29T02:54:50;2.90;;;2.23;;
22571;SDS011;11452;53.368;14.658;2022-07-29T02:59:58;4.00;;;2.93;;
22571;SDS011;11452;53.368;14.658;2022-07-29T03:05:08;4.13;;;2.87;;
22571;SDS011;11452;53.368;14.658;2022-07-29T03:10:16;2.40;;;2.00;;
22571;SDS011;11452;53.368;14.658;2022-07-29T03:15:22;3.23;;;2.40;;
22571;SDS011;11452;53.368;14.658;2022-07-29T03:20:29;3.60;;;2.17;;
22571;SDS011;11452;53.368;14.658;2022-07-29T03:25:35;4.40;;;2.67;;
22571;SDS011;11452;53.368;14.658;2022-07-29T03:30:40;3.13;;;2.80;;
22571;SDS011;11452;53.368;14.658;2022-07-29T03:35:47;3.23;;;2.37;;
22571;SDS011;11452;53.368;14.658;2022-07-29T03:40:58;5.63;;;3.03;;
22571;SDS011;11452;53.368;14.658;2022-07-29T03:46:01;3.17;;;2.97;;
22571;SDS011;11452;53.368;14.658;2022-07-29T03:51:10;3.10;;;2.80;;
22571;SDS011;11452;53.368;14.658;2022-07-29T03:56:16;3.57;;;2.80;;
22571;SDS011;11452;53.368;14.658;2022-07-29T04:01:25;4.90;;;3.07;;
22571;SDS011;11452;53.368;14.658;2022-07-29T04:06:42;3.00;;;2.70;;
22571;SDS011;11452;53.368;14.658;2022-07-29T04:11:50;5.90;;;2.77;;
22571;SDS011;11452;53.368;14.658;2022-07-29T04:16:59;3.27;;;2.80;;
22571;SDS011;11452;53.368;14.658;2022-07-29T04:22:06;3.53;;;2.53;;
22571;SDS011;11452;53.368;14.658;2022-07-29T04:27:11;5.13;;;2.93;;
22571;SDS011;11452;53.368;14.658;2022-07-29T04:32:17;2.93;;;2.60;;
22571;SDS011;11452;53.368;14.658;2022-07-29T04:37:23;4.87;;;3.23;;
22571;SDS011;11452;53.368;14.658;2022-07-29T04:42:29;5.17;;;2.77;;
22571;SDS011;11452;53.368;14.658;2022-07-29T04:47:35;4.37;;;2.67;;
22571;SDS011;11452;53.368;14.658;2022-07-29T04:52:40;3.17;;;2.87;;
22571;SDS011;11452;53.368;14.658;2022-07-29T04:57:46;5.20;;;2.90;;
22571;SDS011;11452;53.368;14.658;2022-07-29T05:02:52;3.90;;;2.60;;
22571;SDS011;11452;53.368;14.658;2022-07-29T05:07:58;6.73;;;3.27;;
22571;SDS011;11452;53.368;14.658;2022-07-29T05:13:04;4.77;;;3.50;;
22571;SDS011;11452;53.368;14.658;2022-07-29T05:18:10;4.43;;;2.80;;
22571;SDS011;11452;53.368;14.658;2022-07-29T05:23:16;3.57;;;3.30;;
22571;SDS011;11452;53.368;14.658;2022-07-29T05:28:22;4.77;;;2.90;;
22571;SDS011;11452;53.368;14.658;2022-07-29T05:33:27;6.40;;;3.20;;
22571;SDS011;11452;53.368;14.658;2022-07-29T05:38:35;2.90;;;2.70;;
22571;SDS011;11452;53.368;14.658;2022-07-29T05:43:41;7.63;;;3.80;;
22571;SDS011;11452;53.368;14.658;2022-07-29T05:48:46;3.30;;;3.03;;
22571;SDS011;11452;53.368;14.658;2022-07-29T05:53:52;3.57;;;3.00;;
22571;SDS011;11452;53.368;14.658;2022-07-29T05:58:57;4.80;;;3.37;;
22571;SDS011;11452;53.368;14.658;2022-07-29T06:04:03;4.30;;;3.13;;
22571;SDS011;11452;53.368;14.658;2022-07-29T06:09:09;5.23;;;3.80;;
22571;SDS011;11452;53.368;14.658;2022-07-29T06:14:16;6.40;;;3.10;;
22571;SDS011;11452;53.368;14.658;2022-07-29T06:19:23;3.57;;;3.10;;
22571;SDS011;11452;53.368;14.658;2022-07-29T06:24:29;2.83;;;2.53;;
22571;SDS011;11452;53.368;14.658;2022-07-29T06:29:35;2.93;;;2.40;;
22571;SDS011;11452;53.368;14.658;2022-07-29T06:34:40;5.93;;;2.77;;
22571;SDS011;11452;53.368;14.658;2022-07-29T06:39:48;3.43;;;2.40;;
22571;SDS011;11452;53.368;14.658;2022-07-29T06:44:56;4.60;;;3.33;;
22571;SDS011;11452;53.368;14.658;2022-07-29T06:50:05;7.33;;;2.80;;
22571;SDS011;11452;53.368;14.658;2022-07-29T06:55:13;2.87;;;2.57;;
22571;SDS011;11452;53.368;14.658;2022-07-29T07:00:20;3.23;;;2.53;;
22571;SDS011;11452;53.368;14.658;2022-07-29T07:05:26;11.37;;;3.40;;
22571;SDS011;11452;53.368;14.658;2022-07-29T07:10:32;4.03;;;2.40;;
22571;SDS011;11452;53.368;14.658;2022-07-29T07:15:38;2.47;;;2.10;;
22571;SDS011;11452;53.368;14.658;2022-07-29T07:20:44;2.90;;;2.30;;
22571;SDS011;11452;53.368;14.658;2022-07-29T07:25:51;3.13;;;2.03;;
22571;SDS011;11452;53.368;14.658;2022-07-29T07:30:58;3.53;;;2.30;;
22571;SDS011;11452;53.368;14.658;2022-07-29T07:36:04;2.13;;;1.83;;
22571;SDS011;11452;53.368;14.658;2022-07-29T07:41:10;2.13;;;1.80;;
22571;SDS011;11452;53.368;14.658;2022-07-29T07:46:17;3.10;;;2.27;;
22571;SDS011;11452;53.368;14.658;2022-07-29T07:51:22;5.80;;;1.90;;
22571;SDS011;11452;53.368;14.658;2022-07-29T07:56:28;2.37;;;1.77;;
22571;SDS011;11452;53.368;14.658;2022-07-29T08:01:36;4.93;;;2.30;;
22571;SDS011;11452;53.368;14.658;2022-07-29T08:06:43;2.10;;;1.90;;
22571;SDS011;11452;53.368;14.658;2022-07-29T08:11:49;3.37;;;1.97;;
22571;SDS011;11452;53.368;14.658;2022-07-29T08:16:55;4.70;;;2.23;;
22571;SDS011;11452;53.368;14.658;2022-07-29T08:22:01;2.17;;;1.70;;
22571;SDS011;11452;53.368;14.658;2022-07-29T08:27:06;2.37;;;2.00;;
22571;SDS011;11452;53.368;14.658;2022-07-29T08:32:14;3.60;;;2.13;;
22571;SDS011;11452;53.368;14.658;2022-07-29T08:37:21;4.33;;;2.30;;
22571;SDS011;11452;53.368;14.658;2022-07-29T08:42:27;4.53;;;2.67;;
22571;SDS011;11452;53.368;14.658;2022-07-29T08:47:33;3.40;;;2.30;;
22571;SDS011;11452;53.368;14.658;2022-07-29T08:52:41;2.30;;;2.10;;
22571;SDS011;11452;53.368;14.658;2022-07-29T08:57:56;4.70;;;2.43;;
22571;SDS011;11452;53.368;14.658;2022-07-29T09:02:59;4.47;;;2.53;;
22571;SDS011;11452;53.368;14.658;2022-07-29T09:08:06;3.27;;;2.47;;
22571;SDS011;11452;53.368;14.658;2022-07-29T09:13:12;2.93;;;2.63;;
22571;SDS011;11452;53.368;14.658;2022-07-29T09:29:14;3.27;;;2.47;;
22571;SDS011;11452;53.368;14.658;2022-07-29T09:34:22;3.77;;;2.40;;
22571;SDS011;11452;53.368;14.658;2022-07-29T09:39:35;6.03;;;2.97;;
22571;SDS011;11452;53.368;14.658;2022-07-29T09:44:48;2.97;;;2.00;;
22571;SDS011;11452;53.368;14.658;2022-07-29T09:49:55;2.70;;;2.27;;
22571;SDS011;11452;53.368;14.658;2022-07-29T09:55:07;2.90;;;2.13;;
22571;SDS011;11452;53.368;14.658;2022-07-29T10:00:17;3.87;;;2.30;;
22571;SDS011;11452;53.368;14.658;2022-07-29T10:05:26;3.27;;;2.23;;
22571;SDS011;11452;53.368;14.658;2022-07-29T10:10:34;2.83;;;2.50;;
22571;SDS011;11452;53.368;14.658;2022-07-29T10:15:42;2.33;;;2.10;;
22571;SDS011;11452;53.368;14.658;2022-07-29T10:20:50;2.27;;;2.10;;
22571;SDS011;11452;53.368;14.658;2022-07-29T10:25:56;3.10;;;2.60;;
22571;SDS011;11452;53.368;14.658;2022-07-29T10:31:04;5.10;;;2.13;;
22571;SDS011;11452;53.368;14.658;2022-07-29T10:36:18;10.90;;;3.37;;
22571;SDS011;11452;53.368;14.658;2022-07-29T10:41:47;3.40;;;2.40;;
22571;SDS011;11452;53.368;14.658;2022-07-29T10:46:58;2.60;;;2.20;;
22571;SDS011;11452;53.368;14.658;2022-07-29T10:52:08;4.77;;;2.30;;
22571;SDS011;11452;53.368;14.658;2022-07-29T10:57:27;4.30;;;2.77;;
22571;SDS011;11452;53.368;14.658;2022-07-29T11:02:40;2.00;;;1.90;;
22571;SDS011;11452;53.368;14.658;2022-07-29T11:24:18;2.50;;;1.83;;
22571;SDS011;11452;53.368;14.658;2022-07-29T11:29:28;5.97;;;2.27;;
22571;SDS011;11452;53.368;14.658;2022-07-29T11:34:38;2.17;;;1.50;;
22571;SDS011;11452;53.368;14.658;2022-07-29T11:39:46;3.13;;;2.30;;
22571;SDS011;11452;53.368;14.658;2022-07-29T11:44:54;6.70;;;2.53;;
22571;SDS011;11452;53.368;14.658;2022-07-29T11:50:13;6.77;;;2.50;;
22571;SDS011;11452;53.368;14.658;2022-07-29T11:55:17;3.17;;;1.87;;
22571;SDS011;11452;53.368;14.658;2022-07-29T12:00:32;2.60;;;1.73;;
22571;SDS011;11452;53.368;14.658;2022-07-29T12:05:48;4.17;;;1.80;;
22571;SDS011;11452;53.368;14.658;2022-07-29T12:10:51;3.63;;;1.97;;
22571;SDS011;11452;53.368;14.658;2022-07-29T12:15:57;3.90;;;2.07;;
22571;SDS011;11452;53.368;14.658;2022-07-29T12:21:05;3.53;;;1.97;;
22571;SDS011;11452;53.368;14.658;2022-07-29T12:26:13;3.40;;;1.90;;
22571;SDS011;11452;53.368;14.658;2022-07-29T12:31:21;2.40;;;2.20;;
22571;SDS011;11452;53.368;14.658;2022-07-29T12:36:28;3.13;;;1.70;;
22571;SDS011;11452;53.368;14.658;2022-07-29T12:41:34;6.33;;;2.03;;
22571;SDS011;11452;53.368;14.658;2022-07-29T12:46:40;2.67;;;1.93;;
22571;SDS011;11452;53.368;14.658;2022-07-29T12:51:46;3.23;;;2.17;;
22571;SDS011;11452;53.368;14.658;2022-07-29T12:56:57;3.83;;;1.80;;
22571;SDS011;11452;53.368;14.658;2022-07-29T13:02:00;4.03;;;1.83;;
22571;SDS011;11452;53.368;14.658;2022-07-29T13:07:06;2.77;;;1.70;;
22571;SDS011;11452;53.368;14.658;2022-07-29T13:12:13;1.93;;;1.80;;
22571;SDS011;11452;53.368;14.658;2022-07-29T13:17:20;4.33;;;1.90;;
22571;SDS011;11452;53.368;14.658;2022-07-29T13:22:27;6.80;;;1.90;;
22571;SDS011;11452;53.368;14.658;2022-07-29T13:27:34;3.37;;;1.73;;
22571;SDS011;11452;53.368;14.658;2022-07-29T13:32:41;2.33;;;1.70;;
22571;SDS011;11452;53.368;14.658;2022-07-29T13:37:46;1.80;;;1.70;;
22571;SDS011;11452;53.368;14.658;2022-07-29T13:42:54;4.53;;;1.97;;
22571;SDS011;11452;53.368;14.658;2022-07-29T13:47:59;2.30;;;1.73;;
22571;SDS011;11452;53.368;14.658;2022-07-29T13:53:05;2.60;;;1.70;;
22571;SDS011;11452;53.368;14.658;2022-07-29T13:58:10;3.50;;;1.60;;
22571;SDS011;11452;53.368;14.658;2022-07-29T14:03:16;1.80;;;1.70;;
22571;SDS011;11452;53.368;14.658;2022-07-29T14:08:24;2.67;;;1.93;;
22571;SDS011;11452;53.368;14.658;2022-07-29T14:13:30;2.47;;;2.10;;
22571;SDS011;11452;53.368;14.658;2022-07-29T14:18:35;4.37;;;2.03;;
22571;SDS011;11452;53.368;14.658;2022-07-29T14:23:41;2.27;;;1.83;;
22571;SDS011;11452;53.368;14.658;2022-07-29T14:28:48;1.90;;;1.80;;
22571;SDS011;11452;53.368;14.658;2022-07-29T14:33:54;2.33;;;2.07;;
22571;SDS011;11452;53.368;14.658;2022-07-29T14:39:01;2.50;;;1.70;;
22571;SDS011;11452;53.368;14.658;2022-07-29T14:44:07;3.63;;;2.00;;
22571;SDS011;11452;53.368;14.658;2022-07-29T14:49:13;3.37;;;2.10;;
22571;SDS011;11452;53.368;14.658;2022-07-29T14:54:19;4.45;;;2.10;;
22571;SDS011;11452;53.368;14.658;2022-07-29T14:59:25;4.67;;;2.30;;
22571;SDS011;11452;53.368;14.658;2022-07-29T15:04:30;4.05;;;2.20;;
22571;SDS011;11452;53.368;14.658;2022-07-29T15:09:36;3.57;;;2.00;;
22571;SDS011;11452;53.368;14.658;2022-07-29T15:14:43;3.37;;;2.30;;
22571;SDS011;11452;53.368;14.658;2022-07-29T15:19:49;2.87;;;1.90;;
22571;SDS011;11452;53.368;14.658;2022-07-29T15:24:54;4.30;;;2.10;;
22571;SDS011;11452;53.368;14.658;2022-07-29T15:30:00;4.27;;;1.80;;
22571;SDS011;11452;53.368;14.658;2022-07-29T15:35:06;2.77;;;2.57;;
22571;SDS011;11452;53.368;14.658;2022-07-29T15:40:13;2.47;;;2.02;;
22571;SDS011;11452;53.368;14.658;2022-07-29T15:45:19;1.98;;;1.85;;
22571;SDS011;11452;53.368;14.658;2022-07-29T15:50:25;3.33;;;1.90;;
22571;SDS011;11452;53.368;14.658;2022-07-29T15:55:30;2.43;;;1.70;;
22571;SDS011;11452;53.368;14.658;2022-07-29T16:00:36;3.17;;;2.13;;
22571;SDS011;11452;53.368;14.658;2022-07-29T16:05:42;2.80;;;2.23;;
22571;SDS011;11452;53.368;14.658;2022-07-29T16:10:48;2.20;;;2.00;;
22571;SDS011;11452;53.368;14.658;2022-07-29T16:15:53;3.47;;;2.07;;
22571;SDS011;11452;53.368;14.658;2022-07-29T16:21:00;3.97;;;2.07;;
22571;SDS011;11452;53.368;14.658;2022-07-29T16:26:06;5.40;;;2.50;;
22571;SDS011;11452;53.368;14.658;2022-07-29T16:31:12;4.20;;;2.57;;
22571;SDS011;11452;53.368;14.658;2022-07-29T16:36:18;3.42;;;2.70;;
22571;SDS011;11452;53.368;14.658;2022-07-29T16:41:24;3.60;;;2.60;;
22571;SDS011;11452;53.368;14.658;2022-07-29T16:46:32;3.10;;;2.17;;
22571;SDS011;11452;53.368;14.658;2022-07-29T16:51:41;3.63;;;1.90;;
22571;SDS011;11452;53.368;14.658;2022-07-29T16:56:46;3.13;;;2.07;;
22571;SDS011;11452;53.368;14.658;2022-07-29T17:01:52;6.03;;;2.00;;
22571;SDS011;11452;53.368;14.658;2022-07-29T17:06:58;4.77;;;2.40;;
22571;SDS011;11452;53.368;14.658;2022-07-29T17:12:04;2.40;;;2.20;;
22571;SDS011;11452;53.368;14.658;2022-07-29T17:17:10;2.72;;;1.98;;
22571;SDS011;11452;53.368;14.658;2022-07-29T17:22:17;2.70;;;2.30;;
22571;SDS011;11452;53.368;14.658;2022-07-29T17:27:23;3.40;;;2.50;;
22571;SDS011;11452;53.368;14.658;2022-07-29T17:32:28;3.63;;;2.10;;
22571;SDS011;11452;53.368;14.658;2022-07-29T17:37:35;3.63;;;2.13;;
22571;SDS011;11452;53.368;14.658;2022-07-29T17:42:41;4.42;;;2.00;;
22571;SDS011;11452;53.368;14.658;2022-07-29T17:47:47;2.58;;;2.37;;
22571;SDS011;11452;53.368;14.658;2022-07-29T17:52:52;3.63;;;2.50;;
22571;SDS011;11452;53.368;14.658;2022-07-29T17:57:58;3.50;;;2.50;;
22571;SDS011;11452;53.368;14.658;2022-07-29T18:03:04;2.20;;;2.10;;
22571;SDS011;11452;53.368;14.658;2022-07-29T18:08:10;6.40;;;2.53;;
22571;SDS011;11452;53.368;14.658;2022-07-29T18:13:15;4.37;;;2.77;;
22571;SDS011;11452;53.368;14.658;2022-07-29T18:18:21;4.10;;;3.13;;
22571;SDS011;11452;53.368;14.658;2022-07-29T18:23:26;2.13;;;2.03;;
22571;SDS011;11452;53.368;14.658;2022-07-29T18:28:32;4.57;;;2.50;;
22571;SDS011;11452;53.368;14.658;2022-07-29T18:33:38;3.73;;;2.80;;
22571;SDS011;11452;53.368;14.658;2022-07-29T18:38:43;5.90;;;3.03;;
22571;SDS011;11452;53.368;14.658;2022-07-29T18:43:49;3.00;;;2.70;;
22571;SDS011;11452;53.368;14.658;2022-07-29T18:48:56;3.13;;;2.83;;
22571;SDS011;11452;53.368;14.658;2022-07-29T18:54:02;2.90;;;2.60;;
22571;SDS011;11452;53.368;14.658;2022-07-29T18:59:09;4.73;;;2.80;;
22571;SDS011;11452;53.368;14.658;2022-07-29T19:04:15;3.63;;;2.57;;
22571;SDS011;11452;53.368;14.658;2022-07-29T19:09:20;3.37;;;2.10;;
22571;SDS011;11452;53.368;14.658;2022-07-29T19:14:26;2.30;;;2.10;;
22571;SDS011;11452;53.368;14.658;2022-07-29T19:19:32;3.53;;;2.63;;
22571;SDS011;11452;53.368;14.658;2022-07-29T19:24:38;2.93;;;2.73;;
22571;SDS011;11452;53.368;14.658;2022-07-29T19:29:45;3.10;;;2.43;;
22571;SDS011;11452;53.368;14.658;2022-07-29T19:34:51;2.80;;;2.60;;
22571;SDS011;11452;53.368;14.658;2022-07-29T19:40:14;5.27;;;3.00;;
22571;SDS011;11452;53.368;14.658;2022-07-29T19:45:20;3.20;;;2.80;;
22571;SDS011;11452;53.368;14.658;2022-07-29T19:50:28;3.10;;;2.70;;
22571;SDS011;11452;53.368;14.658;2022-07-29T19:55:34;2.50;;;2.30;;
22571;SDS011;11452;53.368;14.658;2022-07-29T20:00:40;4.17;;;2.67;;
22571;SDS011;11452;53.368;14.658;2022-07-29T20:05:46;3.63;;;2.37;;
22571;SDS011;11452;53.368;14.658;2022-07-29T20:10:55;3.87;;;2.70;;
22571;SDS011;11452;53.368;14.658;2022-07-29T20:16:01;3.80;;;2.37;;
22571;SDS011;11452;53.368;14.658;2022-07-29T20:21:09;3.90;;;2.40;;
22571;SDS011;11452;53.368;14.658;2022-07-29T20:26:14;4.53;;;2.47;;
22571;SDS011;11452;53.368;14.658;2022-07-29T20:31:21;3.40;;;2.70;;
22571;SDS011;11452;53.368;14.658;2022-07-29T20:36:27;4.00;;;2.93;;
22571;SDS011;11452;53.368;14.658;2022-07-29T20:41:33;2.83;;;2.30;;
22571;SDS011;11452;53.368;14.658;2022-07-29T20:46:38;3.23;;;2.77;;
22571;SDS011;11452;53.368;14.658;2022-07-29T20:51:44;3.20;;;2.50;;
22571;SDS011;11452;53.368;14.658;2022-07-29T20:56:50;4.57;;;3.20;;
22571;SDS011;11452;53.368;14.658;2022-07-29T21:01:56;4.40;;;2.90;;
22571;SDS011;11452;53.368;14.658;2022-07-29T21:07:02;3.17;;;2.80;;
22571;SDS011;11452;53.368;14.658;2022-07-29T21:12:08;2.50;;;2.20;;
22571;SDS011;11452;53.368;14.658;2022-07-29T21:17:14;4.57;;;2.70;;
22571;SDS011;11452;53.368;14.658;2022-07-29T21:22:23;3.80;;;2.60;;
22571;SDS011;11452;53.368;14.658;2022-07-29T21:27:29;4.23;;;3.07;;
22571;SDS011;11452;53.368;14.658;2022-07-29T21:32:53;4.50;;;2.77;;
22571;SDS011;11452;53.368;14.658;2022-07-29T21:37:59;2.90;;;2.60;;
22571;SDS011;11452;53.368;14.658;2022-07-29T21:43:04;2.93;;;2.73;;
22571;SDS011;11452;53.368;14.658;2022-07-29T21:48:12;5.23;;;2.93;;
22571;SDS011;11452;53.368;14.658;2022-07-29T21:53:18;2.80;;;2.40;;
22571;SDS011;11452;53.368;14.658;2022-07-29T21:58:25;3.13;;;2.83;;
22571;SDS011;11452;53.368;14.658;2022-07-29T22:03:31;4.03;;;2.67;;
22571;SDS011;11452;53.368;14.658;2022-07-29T22:08:36;4.77;;;2.60;;
22571;SDS011;11452;53.368;14.658;2022-07-29T22:13:43;4.00;;;2.07;;
22571;SDS011;11452;53.368;14.658;2022-07-29T22:18:49;2.90;;;2.20;;
22571;SDS011;11452;53.368;14.658;2022-07-29T22:23:55;4.13;;;2.50;;
22571;SDS011;11452;53.368;14.658;2022-07-29T22:29:00;3.03;;;2.47;;
22571;SDS011;11452;53.368;14.658;2022-07-29T22:34:06;4.60;;;2.73;;
22571;SDS011;11452;53.368;14.658;2022-07-29T22:39:13;3.17;;;2.67;;
22571;SDS011;11452;53.368;14.658;2022-07-29T22:44:19;4.43;;;3.00;;
22571;SDS011;11452;53.368;14.658;2022-07-29T22:49:24;4.23;;;2.77;;
22571;SDS011;11452;53.368;14.658;2022-07-29T22:54:31;3.33;;;2.70;;
22571;SDS011;11452;53.368;14.658;2022-07-29T22:59:37;3.87;;;2.47;;
22571;SDS011;11452;53.368;14.658;2022-07-29T23:04:42;2.43;;;2.20;;
22571;SDS011;11452;53.368;14.658;2022-07-29T23:09:48;3.97;;;2.63;;
22571;SDS011;11452;53.368;14.658;2022-07-29T23:14:54;3.73;;;2.60;;
22571;SDS011;11452;53.368;14.658;2022-07-29T23:19:59;4.00;;;2.30;;
22571;SDS011;11452;53.368;14.658;2022-07-29T23:25:05;2.60;;;2.00;;
22571;SDS011;11452;53.368;14.658;2022-07-29T23:30:11;4.27;;;2.30;;
22571;SDS011;11452;53.368;14.658;2022-07-29T23:35:17;4.13;;;2.33;;
22571;SDS011;11452;53.368;14.658;2022-07-29T23:40:23;3.97;;;2.10;;
22571;SDS011;11452;53.368;14.658;2022-07-29T23:45:29;2.70;;;2.50;;
22571;SDS011;11452;53.368;14.658;2022-07-29T23:50:36;2.40;;;2.20;;
22571;SDS011;11452;53.368;14.658;2022-07-29T23:55:42;3.77;;;2.20;;
